Time;durP1;ratioP1;P1;durP2;ratioP2;P2;SDS_P1;SDS_P2;PMS_P1;PMS_P2;Temp;Humidity;BMP_temperature;BMP_pressure;BME280_temperature;BME280_humidity;BME280_pressure;Samples;Min_cycle;Max_cycle;Signal;HPM_P1;HPM_P2
2023/11/25 00:02:50;;;;;;;3.42;0.80;;;;;;;1.62;100.00;100389.28;6285958;28;20041;-72
2023/11/25 00:05:51;;;;;;;1.25;0.50;;;;;;;1.60;100.00;100398.81;6267320;28;20053;-72
2023/11/25 00:08:53;;;;;;;6.28;1.35;;;;;;;1.70;100.00;100405.50;6275670;28;20049;-72
2023/11/25 00:11:55;;;;;;;2.13;0.95;;;;;;;1.59;100.00;100410.09;6275791;28;20052;-72
2023/11/25 00:14:57;;;;;;;2.75;1.02;;;;;;;1.57;100.00;100413.56;6275268;28;20330;-71
2023/11/25 00:17:59;;;;;;;4.03;0.95;;;;;;;1.67;100.00;100412.47;6275728;28;20049;-73
2023/11/25 00:21:00;;;;;;;7.47;1.00;;;;;;;1.68;100.00;100411.59;6275292;28;20045;-72
2023/11/25 00:24:02;;;;;;;4.43;0.98;;;;;;;1.68;100.00;100427.13;6268662;28;20465;-71
2023/11/25 00:27:05;;;;;;;5.28;0.60;;;;;;;1.71;100.00;100427.06;6275286;28;20053;-71
2023/11/25 00:30:08;;;;;;;2.97;0.30;;;;;;;1.73;100.00;100425.31;6275289;28;20041;-71
2023/11/25 00:33:09;;;;;;;4.97;1.13;;;;;;;1.74;100.00;100434.78;6275072;28;20052;-70
2023/11/25 00:36:11;;;;;;;3.22;0.77;;;;;;;1.74;100.00;100429.59;6275479;28;20053;-71
2023/11/25 00:39:15;;;;;;;4.95;0.65;;;;;;;1.62;100.00;100438.47;6275064;28;20138;-71
2023/11/25 00:42:21;;;;;;;4.05;0.70;;;;;;;1.71;100.00;100432.25;6275074;28;20479;-71
2023/11/25 00:45:25;;;;;;;44.42;13.73;;;;;;;1.65;100.00;100430.66;6275355;28;20048;-71
2023/11/25 00:48:26;;;;;;;4.85;1.52;;;;;;;1.64;100.00;100436.72;6274956;28;20049;-72
2023/11/25 00:51:28;;;;;;;0.63;0.52;;;;;;;1.68;100.00;100443.53;6280188;28;20122;-72
2023/11/25 00:54:29;;;;;;;1.92;0.77;;;;;;;1.67;100.00;100440.97;6267524;28;20059;-73
2023/11/25 00:57:32;;;;;;;1.50;0.57;;;;;;;1.69;100.00;100447.84;6275250;28;20049;-73
2023/11/25 01:00:33;;;;;;;5.30;0.73;;;;;;;1.71;100.00;100453.81;6270745;28;20050;-73
2023/11/25 01:03:35;;;;;;;7.75;1.23;;;;;;;1.72;100.00;100454.66;6274710;28;20334;-72
2023/11/25 01:06:36;;;;;;;5.20;0.98;;;;;;;1.70;100.00;100459.03;6271258;28;20057;-71
2023/11/25 01:09:38;;;;;;;0.70;0.30;;;;;;;1.57;100.00;100455.84;6277973;28;20045;-71
2023/11/25 01:12:41;;;;;;;4.25;0.57;;;;;;;1.67;100.00;100452.19;6279680;28;20059;-72
2023/11/25 01:15:42;;;;;;;2.72;0.52;;;;;;;1.73;100.00;100465.03;6279658;28;20156;-71
2023/11/25 01:18:44;;;;;;;1.55;0.52;;;;;;;1.74;100.00;100468.47;6279584;28;20619;-72
2023/11/25 01:21:46;;;;;;;2.92;0.50;;;;;;;1.72;100.00;100467.63;6279265;28;20049;-72
2023/11/25 01:24:47;;;;;;;2.55;0.68;;;;;;;1.65;100.00;100461.72;6279295;28;20456;-70
2023/11/25 01:27:50;;;;;;;7.65;0.95;;;;;;;1.65;100.00;100466.06;6279412;28;20052;-71
2023/11/25 01:30:52;;;;;;;6.75;0.70;;;;;;;1.65;100.00;100469.50;6281929;28;20045;-73
2023/11/25 01:33:53;;;;;;;0.30;0.25;;;;;;;1.59;100.00;100459.28;6254144;28;20049;-73
2023/11/25 01:36:55;;;;;;;8.35;1.08;;;;;;;1.53;100.00;100452.47;6267083;28;20133;-72
2023/11/25 01:39:56;;;;;;;3.42;0.90;;;;;;;1.43;100.00;100452.72;6278426;28;20239;-72
2023/11/25 01:42:59;;;;;;;2.30;1.00;;;;;;;1.40;100.00;100450.16;6284212;28;20049;-71
2023/11/25 01:46:04;;;;;;;2.35;1.00;;;;;;;1.35;100.00;100450.25;6279294;28;20060;-71
2023/11/25 01:49:06;;;;;;;1.25;0.82;;;;;;;1.29;100.00;100453.00;6277232;28;20076;-71
2023/11/25 01:52:09;;;;;;;5.68;1.52;;;;;;;1.30;100.00;100451.25;6272453;28;20175;-73
2023/11/25 01:55:12;;;;;;;5.63;1.17;;;;;;;1.31;100.00;100461.56;6291064;22;20105;-77
2023/11/25 01:58:16;;;;;;;11.43;1.42;;;;;;;1.38;100.00;100463.16;6283773;28;20052;-77
2023/11/25 02:01:19;;;;;;;4.80;0.73;;;;;;;1.41;100.00;100460.50;6274412;28;20330;-77
2023/11/25 02:04:22;;;;;;;8.93;1.33;;;;;;;1.16;100.00;100452.38;6276588;28;20044;-77
2023/11/25 02:07:23;;;;;;;8.82;0.98;;;;;;;1.16;100.00;100454.97;6261012;28;20465;-77
2023/11/25 02:10:25;;;;;;;8.50;1.15;;;;;;;1.26;100.00;100447.84;6277250;28;20097;-77
2023/11/25 02:13:28;;;;;;;5.78;1.15;;;;;;;1.29;100.00;100447.81;6274196;28;20445;-77
2023/11/25 02:16:29;;;;;;;10.68;1.17;;;;;;;1.25;100.00;100451.34;6267716;28;20074;-77
2023/11/25 02:19:31;;;;;;;3.42;1.23;;;;;;;1.33;100.00;100441.69;6265722;28;20045;-78
2023/11/25 02:22:33;;;;;;;3.47;0.82;;;;;;;1.34;100.00;100437.38;6277161;28;20052;-77
2023/11/25 02:25:35;;;;;;;3.25;1.05;;;;;;;1.38;100.00;100444.19;6267828;28;20060;-77
2023/11/25 02:28:37;;;;;;;1.92;0.80;;;;;;;1.43;100.00;100437.16;6268555;28;20071;-77
2023/11/25 02:31:39;;;;;;;0.50;0.43;;;;;;;1.42;100.00;100451.00;6265783;28;20041;-77
2023/11/25 02:34:40;;;;;;;5.55;0.80;;;;;;;1.45;100.00;100448.34;6273428;28;20071;-77
2023/11/25 02:37:43;;;;;;;8.10;0.80;;;;;;;1.44;100.00;100442.31;6268531;28;20060;-77
2023/11/25 02:40:48;;;;;;;9.10;1.02;;;;;;;1.39;100.00;100438.97;6263754;28;20037;-77
2023/11/25 02:43:51;;;;;;;2.60;1.02;;;;;;;1.42;100.00;100444.09;6265032;28;20045;-77
2023/11/25 02:46:53;;;;;;;7.80;1.67;;;;;;;1.34;100.00;100453.75;6264870;28;20049;-77
2023/11/25 02:49:54;;;;;;;9.18;1.42;;;;;;;1.37;100.00;100453.69;6267238;28;20045;-77
2023/11/25 02:52:55;;;;;;;10.25;0.90;;;;;;;1.30;100.00;100441.75;6267187;28;20053;-76
2023/11/25 02:55:58;;;;;;;11.27;1.15;;;;;;;1.25;100.00;100433.22;6263615;28;20045;-76
2023/11/25 02:59:00;;;;;;;3.50;1.02;;;;;;;1.31;100.00;100434.81;6263446;28;20045;-76
2023/11/25 03:02:09;;;;;;;6.80;0.73;;;;;;;1.30;100.00;100428.81;6263727;28;20049;-76
2023/11/25 03:05:11;;;;;;;5.10;0.93;;;;;;;1.40;100.00;100416.50;6265325;28;20369;-77
2023/11/25 03:08:12;;;;;;;6.10;1.00;;;;;;;1.47;100.00;100418.94;6262783;28;20354;-78
2023/11/25 03:11:20;;;;;;;6.47;1.55;;;;;;;1.52;100.00;100419.69;6260015;28;20568;-78
2023/11/25 03:14:22;;;;;;;8.75;1.60;;;;;;;1.41;100.00;100434.63;6267565;28;20353;-77
2023/11/25 03:17:23;;;;;;;10.07;1.27;;;;;;;1.50;100.00;100437.03;6267051;28;20112;-77
2023/11/25 03:20:50;;;;;;;3.22;0.85;;;;;;;1.51;100.00;100427.50;6267126;28;20356;-78
2023/11/25 03:23:52;;;;;;;5.72;1.20;;;;;;;1.47;100.00;100418.94;6273061;28;20057;-77
2023/11/25 03:26:56;;;;;;;11.07;1.23;;;;;;;1.44;100.00;100425.94;6276666;28;20071;-77
2023/11/25 03:29:58;;;;;;;2.78;0.55;;;;;;;1.43;100.00;100424.22;6279885;28;20090;-77
2023/11/25 03:32:59;;;;;;;2.80;0.95;;;;;;;1.50;100.00;100433.59;6254535;28;20065;-77
2023/11/25 03:36:00;;;;;;;5.82;1.52;;;;;;;1.57;100.00;100427.38;6251302;28;20080;-78
2023/11/25 03:39:05;;;;;;;6.85;0.80;;;;;;;1.58;100.00;100412.69;6262975;28;20045;-77
2023/11/25 03:42:08;;;;;;;3.83;1.27;;;;;;;1.64;100.00;100417.75;6251336;28;20155;-77
2023/11/25 03:45:12;;;;;;;5.07;0.55;;;;;;;1.64;100.00;100415.16;6258448;28;20376;-77
2023/11/25 03:48:14;;;;;;;6.60;0.65;;;;;;;1.64;100.00;100400.47;6256672;28;20087;-77
2023/11/25 03:51:15;;;;;;;2.47;1.00;;;;;;;1.64;100.00;100397.88;6252067;28;20449;-78
2023/11/25 03:54:16;;;;;;;4.25;1.10;;;;;;;1.66;100.00;100387.47;6262369;28;20052;-77
2023/11/25 03:57:20;;;;;;;2.63;0.70;;;;;;;1.69;100.00;100383.09;6261807;28;20361;-77
2023/11/25 04:00:22;;;;;;;5.90;0.70;;;;;;;1.61;100.00;100395.34;6263254;28;20041;-77
2023/11/25 04:03:25;;;;;;;6.95;0.70;;;;;;;1.55;100.00;100379.94;6260927;28;20339;-77
2023/11/25 04:06:26;;;;;;;2.15;0.90;;;;;;;1.70;100.00;100381.34;6262089;28;20136;-77
2023/11/25 04:09:28;;;;;;;6.70;0.52;;;;;;;1.68;100.00;100385.69;6262395;28;20447;-78
2023/11/25 04:12:33;;;;;;;10.00;0.85;;;;;;;1.75;100.00;100375.16;6265506;28;20483;-77
2023/11/25 04:15:34;;;;;;;5.25;0.80;;;;;;;1.70;100.00;100391.69;6249885;28;20068;-76
2023/11/25 04:18:37;;;;;;;9.30;1.45;;;;;;;1.57;100.00;100396.28;6249968;28;20049;-76
2023/11/25 04:21:40;;;;;;;11.00;1.02;;;;;;;1.57;100.00;100395.44;6249488;28;20350;-77
2023/11/25 04:24:42;;;;;;;2.75;0.70;;;;;;;1.59;100.00;100375.53;6249670;28;20053;-78
2023/11/25 04:27:46;;;;;;;9.88;1.15;;;;;;;1.67;100.00;100365.84;6249517;28;20080;-78
2023/11/25 04:30:48;;;;;;;4.90;0.57;;;;;;;1.56;100.00;100373.88;6249535;28;20466;-78
2023/11/25 04:33:50;;;;;;;6.40;0.45;;;;;;;1.58;100.00;100369.50;6249429;28;20061;-79
2023/11/25 04:36:53;;;;;;;2.28;0.88;;;;;;;1.64;100.00;100361.63;6249089;28;20128;-78
2023/11/25 04:39:54;;;;;;;4.20;0.60;;;;;;;1.60;100.00;100372.09;6249539;28;20053;-78
2023/11/25 04:42:57;;;;;;;3.38;0.60;;;;;;;1.67;100.00;100377.06;6248039;28;20042;-78
2023/11/25 04:46:01;;;;;;;4.43;1.00;;;;;;;1.64;100.00;100379.75;6249368;28;20438;-78
2023/11/25 04:49:04;;;;;;;4.72;1.00;;;;;;;1.60;100.00;100374.66;6249273;28;20053;-79
2023/11/25 04:52:06;;;;;;;2.45;0.95;;;;;;;1.59;100.00;100373.81;6270433;28;20053;-79
2023/11/25 04:55:08;;;;;;;7.40;1.08;;;;;;;1.60;100.00;100372.09;6230621;28;1018338;-79
2023/11/25 04:58:11;;;;;;;8.32;1.38;;;;;;;1.62;100.00;100383.25;6275199;28;20055;-78
2023/11/25 05:01:13;;;;;;;4.55;0.65;;;;;;;1.67;100.00;100387.44;6269383;28;20446;-78
2023/11/25 05:04:14;;;;;;;9.32;1.08;;;;;;;1.65;100.00;100381.44;6277164;28;20094;-79
2023/11/25 05:07:16;;;;;;;2.88;0.80;;;;;;;1.71;100.00;100367.50;6255980;28;20056;-79
2023/11/25 05:10:20;;;;;;;1.08;0.45;;;;;;;1.70;100.00;100360.63;6262254;28;20449;-79
2023/11/25 05:13:22;;;;;;;11.88;1.27;;;;;;;1.75;100.00;100361.34;6272410;28;20045;-79
2023/11/25 05:16:24;;;;;;;0.25;0.25;;;;;;;1.75;100.00;100351.84;6249985;28;20050;-79
2023/11/25 05:19:25;;;;;;;13.02;1.15;;;;;;;1.75;100.00;100348.41;6250010;28;20430;-78
2023/11/25 05:22:27;;;;;;;4.25;0.88;;;;;;;1.82;100.00;100343.91;6262215;28;20049;-78
2023/11/25 05:25:29;;;;;;;0.98;0.50;;;;;;;1.92;100.00;100332.47;6266812;28;20059;-79
2023/11/25 05:28:32;;;;;;;3.03;0.50;;;;;;;1.94;100.00;100326.34;6274603;28;20053;-79
2023/11/25 05:31:34;;;;;;;0.93;0.60;;;;;;;1.97;100.00;100344.41;6274659;28;20056;-78
2023/11/25 05:34:35;;;;;;;2.35;0.68;;;;;;;2.06;100.00;100356.28;6274414;28;20088;-78
2023/11/25 05:37:37;;;;;;;5.55;0.52;;;;;;;1.99;100.00;100363.34;6274526;28;20184;-78
2023/11/25 05:40:38;;;;;;;4.85;0.70;;;;;;;2.08;100.00;100364.03;6274264;28;20056;-78
2023/11/25 05:43:41;;;;;;;1.42;0.57;;;;;;;2.09;100.00;100355.34;6274322;28;20041;-78
2023/11/25 05:46:42;;;;;;;5.55;0.75;;;;;;;2.17;100.00;100353.44;6274398;28;20056;-78
2023/11/25 05:49:44;;;;;;;4.70;0.90;;;;;;;2.26;100.00;100340.22;6274338;28;20049;-78
2023/11/25 05:52:45;;;;;;;0.75;0.60;;;;;;;2.26;100.00;100337.63;6274032;28;20098;-78
2023/11/25 05:55:47;;;;;;;8.52;0.55;;;;;;;2.31;100.00;100321.97;6277159;28;20052;-78
2023/11/25 05:58:51;;;;;;;3.42;0.93;;;;;;;2.35;100.00;100324.44;6278740;28;20401;-78
2023/11/25 06:01:53;;;;;;;3.25;0.70;;;;;;;2.31;100.00;100345.28;6278497;28;20045;-78
2023/11/25 06:04:54;;;;;;;8.90;0.68;;;;;;;2.32;100.00;100327.13;6278768;28;20392;-78
2023/11/25 06:07:55;;;;;;;7.63;1.63;;;;;;;2.37;100.00;100306.25;6278701;28;20053;-78
2023/11/25 06:10:57;;;;;;;7.00;1.02;;;;;;;2.35;100.00;100306.28;6270160;28;20048;-78
2023/11/25 06:14:00;;;;;;;6.40;0.68;;;;;;;2.33;100.00;100300.31;6257464;28;20056;-78
2023/11/25 06:17:04;;;;;;;0.57;0.32;;;;;;;2.32;100.00;100298.59;6255159;28;20068;-78
2023/11/25 06:20:06;;;;;;;4.75;0.80;;;;;;;2.33;100.00;100304.63;6273034;28;20045;-78
2023/11/25 06:23:08;;;;;;;1.30;0.63;;;;;;;2.14;100.00;100317.25;6275089;28;20045;-77
2023/11/25 06:26:10;;;;;;;12.15;1.00;;;;;;;2.22;100.00;100323.03;6276307;28;20056;-78
2023/11/25 06:29:13;;;;;;;4.63;0.80;;;;;;;2.21;100.00;100317.00;6273382;28;20176;-78
2023/11/25 06:32:14;;;;;;;6.22;0.98;;;;;;;2.19;100.00;100312.78;6271233;28;20049;-78
2023/11/25 06:35:15;;;;;;;3.88;0.93;;;;;;;2.23;100.00;100307.47;6277629;28;20048;-78
2023/11/25 06:38:17;;;;;;;0.52;0.52;;;;;;;2.38;100.00;100310.56;6265848;28;20049;-78
2023/11/25 06:41:23;;;;;;;2.72;0.50;;;;;;;2.33;100.00;100302.91;6260652;28;20056;-77
2023/11/25 06:44:25;;;;;;;6.57;1.23;;;;;;;2.35;100.00;100313.22;6252834;28;20056;-77
2023/11/25 06:47:27;;;;;;;8.73;0.82;;;;;;;2.29;100.00;100309.91;6252690;28;20057;-77
2023/11/25 06:50:28;;;;;;;3.22;0.77;;;;;;;2.26;100.00;100307.38;6256086;28;20575;-76
2023/11/25 06:53:30;;;;;;;4.47;1.13;;;;;;;2.25;100.00;100294.47;6263570;28;20346;-76
2023/11/25 06:56:33;;;;;;;7.00;1.25;;;;;;;2.25;100.00;100302.25;6277341;28;20048;-79
2023/11/25 06:59:36;;;;;;;8.05;1.02;;;;;;;2.22;100.00;100308.34;6277375;28;20045;-80
2023/11/25 07:02:39;;;;;;;5.25;1.23;;;;;;;2.22;100.00;100300.56;6271708;28;20045;-81
2023/11/25 07:05:41;;;;;;;2.75;0.80;;;;;;;2.18;100.00;100303.28;6276654;28;20499;-77
2023/11/25 07:08:43;;;;;;;7.00;1.10;;;;;;;2.20;100.00;100286.81;6276467;28;20473;-75
2023/11/25 07:11:44;;;;;;;12.73;0.98;;;;;;;2.23;100.00;100284.16;6278029;28;20102;-76
2023/11/25 07:14:47;;;;;;;3.72;0.95;;;;;;;2.05;100.00;100299.31;6268253;28;20053;-76
2023/11/25 07:17:49;;;;;;;9.98;1.00;;;;;;;1.95;100.00;100278.84;6277005;28;20059;-80
2023/11/25 07:20:50;;;;;;;0.43;0.32;;;;;;;1.95;100.00;100286.59;6276739;28;20076;-79
2023/11/25 07:23:51;;;;;;;0.93;0.60;;;;;;;1.92;100.00;100281.50;6276600;28;20441;-79
2023/11/25 07:26:54;;;;;;;3.25;1.05;;;;;;;1.92;100.00;100286.69;6273552;28;20052;-80
2023/11/25 07:30:00;;;;;;;5.85;1.17;;;;;;;2.03;100.00;100301.94;6264184;28;20349;-77
2023/11/25 07:33:03;;;;;;;3.53;0.77;;;;;;;1.95;100.00;100296.09;6263819;28;20042;-77
2023/11/25 07:36:06;;;;;;;6.20;1.30;;;;;;;2.02;100.00;100297.66;6266279;28;20057;-77
2023/11/25 07:39:07;;;;;;;7.07;1.25;;;;;;;2.14;100.00;100293.91;6269510;28;20055;-77
2023/11/25 07:42:09;;;;;;;4.20;1.08;;;;;;;2.14;100.00;100286.97;6271581;28;20052;-77
2023/11/25 07:45:12;;;;;;;4.38;1.30;;;;;;;2.19;100.00;100285.13;6271716;28;20044;-77
2023/11/25 07:48:13;;;;;;;7.93;0.90;;;;;;;2.25;100.00;100284.94;6268609;28;20046;-77
2023/11/25 07:51:15;;;;;;;13.45;1.35;;;;;;;2.26;100.00;100298.75;6272776;28;20053;-77
2023/11/25 07:54:16;;;;;;;11.23;0.80;;;;;;;2.34;100.00;100277.81;6298225;22;20576;-73
2023/11/25 07:57:18;;;;;;;10.63;0.85;;;;;;;2.32;100.00;100266.63;6274585;28;20441;-71
2023/11/25 08:00:25;;;;;;;4.72;1.17;;;;;;;2.44;100.00;100272.31;6274827;28;20088;-72
2023/11/25 08:03:26;;;;;;;8.05;1.20;;;;;;;2.43;100.00;100281.00;6268412;28;20088;-73
2023/11/25 08:06:28;;;;;;;8.82;1.10;;;;;;;2.56;100.00;100262.53;6262921;28;20053;-73
2023/11/25 08:09:29;;;;;;;4.30;1.10;;;;;;;2.57;100.00;100251.25;6257542;28;20056;-73
2023/11/25 08:12:31;;;;;;;3.35;0.93;;;;;;;2.61;100.00;100264.06;6249405;28;20050;-71
2023/11/25 08:15:34;;;;;;;5.38;1.27;;;;;;;2.59;100.00;100268.47;6249564;28;20057;-73
2023/11/25 08:18:36;;;;;;;5.75;1.23;;;;;;;2.71;100.00;100270.69;6248568;28;20061;-71
2023/11/25 08:21:37;;;;;;;4.30;1.38;;;;;;;2.71;100.00;100275.88;6251946;28;20045;-73
2023/11/25 08:24:39;;;;;;;2.50;1.23;;;;;;;2.69;100.00;100262.13;6262092;28;20106;-71
2023/11/25 08:27:42;;;;;;;10.75;1.38;;;;;;;2.74;100.00;100269.78;6262988;28;20280;-72
2023/11/25 08:30:44;;;;;;;3.10;0.98;;;;;;;2.79;100.00;100273.94;6271552;28;20052;-73
2023/11/25 08:33:46;;;;;;;2.40;1.10;;;;;;;2.89;100.00;100278.84;6272672;28;20045;-72
2023/11/25 08:36:53;;;;;;;1.98;1.08;;;;;;;2.89;100.00;100279.69;6260304;28;20053;-73
2023/11/25 08:39:54;;;;;;;3.05;1.20;;;;;;;2.98;100.00;100282.03;6262891;28;20095;-71
2023/11/25 08:42:56;;;;;;;0.93;0.80;;;;;;;2.74;100.00;100293.13;6271326;28;20052;-70
2023/11/25 08:46:00;;;;;;;4.18;0.70;;;;;;;2.84;100.00;100276.38;6266754;28;20395;-70
2023/11/25 08:49:01;;;;;;;1.13;0.47;;;;;;;2.89;100.00;100279.69;6274909;28;20045;-70
2023/11/25 08:52:03;;;;;;;3.10;0.80;;;;;;;2.97;100.00;100282.91;6279880;28;20044;-70
2023/11/25 08:55:07;;;;;;;1.45;0.70;;;;;;;2.88;100.00;100262.44;6261782;28;20041;-71
2023/11/25 08:58:09;;;;;;;1.15;0.88;;;;;;;2.79;100.00;100260.94;6271811;28;20048;-70
2023/11/25 09:01:11;;;;;;;7.13;1.70;;;;;;;2.73;100.00;100274.13;6273985;28;20437;-70
2023/11/25 09:04:19;;;;;;;4.82;1.75;;;;;;;2.72;100.00;100282.78;6271438;28;20055;-70
2023/11/25 09:07:22;;;;;;;2.35;0.90;;;;;;;2.67;100.00;100284.66;6269763;28;20326;-69
2023/11/25 09:10:24;;;;;;;0.90;0.60;;;;;;;2.80;100.00;100282.56;6261613;28;20474;-69
2023/11/25 09:13:26;;;;;;;1.35;0.98;;;;;;;2.75;100.00;100285.28;6260101;28;20056;-70
2023/11/25 09:16:29;;;;;;;1.02;0.80;;;;;;;2.90;100.00;100290.91;6270601;28;20060;-70
2023/11/25 09:19:30;;;;;;;10.85;1.58;;;;;;;2.71;100.00;100294.03;6266600;28;20049;-70
2023/11/25 09:22:31;;;;;;;3.45;1.30;;;;;;;2.75;100.00;100289.63;6264582;28;20601;-70
2023/11/25 09:25:33;;;;;;;2.30;1.55;;;;;;;2.73;100.00;100286.25;6260437;28;20049;-70
2023/11/25 09:28:34;;;;;;;3.70;1.58;;;;;;;2.76;100.00;100288.72;6263347;28;20056;-70
2023/11/25 09:31:37;;;;;;;17.75;5.38;;;;;;;2.85;100.00;100287.63;6274395;28;20052;-69
2023/11/25 09:34:40;;;;;;;1.17;0.75;;;;;;;2.88;100.00;100279.75;6266917;28;20056;-70
2023/11/25 09:37:42;;;;;;;2.60;0.68;;;;;;;2.83;100.00;100276.44;6271413;28;20068;-70
2023/11/25 09:40:45;;;;;;;1.55;0.63;;;;;;;2.94;100.00;100276.97;6273821;28;20053;-70
2023/11/25 09:43:47;;;;;;;8.20;1.85;;;;;;;2.90;100.00;100296.13;6264745;28;20041;-70
2023/11/25 09:46:50;;;;;;;2.55;0.60;;;;;;;3.01;100.00;100278.50;6270080;28;20517;-75
2023/11/25 09:49:52;;;;;;;4.18;1.13;;;;;;;3.11;100.00;100297.25;6273384;28;20049;-70
2023/11/25 09:52:55;;;;;;;6.70;1.05;;;;;;;3.03;100.00;100274.09;6268105;28;20045;-70
2023/11/25 09:56:03;;;;;;;5.78;2.38;;;;;;;3.11;100.00;100285.09;6272293;28;20041;-70
2023/11/25 09:59:06;;;;;;;2.28;0.70;;;;;;;3.11;100.00;100276.47;6273563;28;20104;-70
2023/11/25 10:02:09;;;;;;;3.42;1.10;;;;;;;3.17;100.00;100273.69;6270850;28;20044;-72
2023/11/25 10:05:11;;;;;;;4.80;1.10;;;;;;;3.22;100.00;100280.41;6275288;28;20041;-71
2023/11/25 10:08:12;;;;;;;3.08;1.10;;;;;;;3.09;100.00;100278.25;6269821;28;20445;-69
2023/11/25 10:11:14;;;;;;;3.20;1.10;;;;;;;3.23;100.00;100282.16;6270126;28;20052;-72
2023/11/25 10:14:17;;;;;;;5.03;1.52;;;;;;;3.36;100.00;100280.03;6278449;28;20048;-71
2023/11/25 10:17:21;;;;;;;4.65;0.88;;;;;;;3.34;100.00;100268.81;6278273;28;20132;-70
2023/11/25 10:20:23;;;;;;;1.48;1.05;;;;;;;3.46;100.00;100265.84;6278345;28;20052;-70
2023/11/25 10:23:25;;;;;;;3.40;1.25;;;;;;;3.49;100.00;100275.25;6277915;28;20045;-73
2023/11/25 10:26:26;;;;;;;10.07;1.23;;;;;;;3.64;100.00;100266.16;6273378;28;20357;-70
2023/11/25 10:29:28;;;;;;;2.97;1.10;;;;;;;3.74;100.00;100259.75;6265086;28;20349;-70
2023/11/25 10:32:32;;;;;;;8.85;1.77;;;;;;;3.74;100.00;100265.78;6272657;28;20063;-69
2023/11/25 10:35:35;;;;;;;4.80;1.55;;;;;;;3.90;100.00;100266.13;6273732;28;20052;-69
2023/11/25 10:38:40;;;;;;;4.45;1.33;;;;;;;3.81;100.00;100274.22;6277673;28;20049;-71
2023/11/25 10:41:43;;;;;;;1.90;1.20;;;;;;;3.94;100.00;100261.66;6276528;28;20107;-70
2023/11/25 10:44:45;;;;;;;6.47;1.63;;;;;;;4.00;100.00;100267.53;6275820;28;20059;-71
2023/11/25 10:47:48;;;;;;;11.73;2.55;;;;;;;3.98;100.00;100269.31;6254768;28;20053;-73
2023/11/25 10:50:49;;;;;;;4.22;1.30;;;;;;;4.15;100.00;100270.50;6271514;28;20056;-70
2023/11/25 10:53:52;;;;;;;4.10;1.23;;;;;;;4.19;100.00;100278.13;6276385;28;20353;-71
2023/11/25 10:56:55;;;;;;;5.95;1.30;;;;;;;4.22;100.00;100275.41;6259148;28;20477;-72
2023/11/25 10:59:58;;;;;;;2.90;1.08;;;;;;;4.25;100.00;100277.91;6262251;28;20049;-70
2023/11/25 11:03:06;;;;;;;7.68;1.27;;;;;;;4.25;100.00;100280.53;6265238;28;20051;-72
2023/11/25 11:06:11;;;;;;;7.10;1.42;;;;;;;4.33;100.00;100278.50;6272868;28;20048;-72
2023/11/25 11:09:19;;;;;;;2.58;1.52;;;;;;;4.50;100.00;100270.09;6265751;28;20061;-70
2023/11/25 11:12:28;;;;;;;8.70;1.75;;;;;;;4.60;100.00;100269.78;6262823;28;20072;-71
2023/11/25 11:15:31;;;;;;;9.13;1.35;;;;;;;4.65;100.00;100268.69;6260421;28;20077;-71
2023/11/25 11:18:37;;;;;;;2.78;1.20;;;;;;;4.65;100.00;100278.25;6270822;28;20048;-70
2023/11/25 11:21:39;;;;;;;13.90;1.42;;;;;;;4.71;100.00;100268.47;6251125;28;20061;-72
2023/11/25 11:24:55;;;;;;;9.25;1.23;;;;;;;4.70;100.00;100263.31;6274631;28;20045;-78
2023/11/25 11:28:07;;;;;;;2.58;1.25;;;;;;;4.69;100.00;100266.84;6274607;28;20584;-71
2023/11/25 11:31:47;;;;;;;4.05;1.70;;;;;;;4.68;100.00;100280.72;6274421;28;20055;-73
2023/11/25 11:34:50;;;;;;;12.25;1.77;;;;;;;4.70;100.00;100281.53;6274350;28;20048;-70
2023/11/25 11:37:51;;;;;;;3.40;0.65;;;;;;;4.83;100.00;100288.84;6274465;28;20055;-70
2023/11/25 11:40:53;;;;;;;3.45;1.02;;;;;;;5.04;100.00;100300.22;6288707;28;20053;-71
2023/11/25 11:44:01;;;;;;;2.95;1.00;;;;;;;5.25;100.00;100290.72;6266301;28;20045;-71
2023/11/25 11:47:03;;;;;;;4.88;1.33;;;;;;;5.33;100.00;100301.69;6268935;28;20048;-71
2023/11/25 11:50:08;;;;;;;6.72;1.20;;;;;;;5.40;100.00;100299.69;6275966;28;20045;-71
2023/11/25 11:53:14;;;;;;;5.35;0.85;;;;;;;5.44;100.00;100296.06;6268526;28;20049;-72
2023/11/25 11:56:15;;;;;;;10.68;2.83;;;;;;;5.41;100.00;100293.59;6275885;28;20060;-71
2023/11/25 11:59:17;;;;;;;6.72;1.42;;;;;;;5.31;100.00;100305.25;6273880;28;20460;-71
2023/11/25 12:02:18;;;;;;;4.10;1.10;;;;;;;5.37;100.00;100296.38;6264805;28;20048;-71
2023/11/25 12:05:21;;;;;;;5.57;0.85;;;;;;;5.44;100.00;100298.66;6267700;28;20076;-72
2023/11/25 12:08:24;;;;;;;1.10;0.57;;;;;;;5.43;100.00;100304.78;6268382;28;20074;-71
2023/11/25 12:11:25;;;;;;;0.52;0.30;;;;;;;5.39;100.00;100302.38;6267355;28;20052;-72
2023/11/25 12:14:27;;;;;;;6.20;0.77;;;;;;;5.32;100.00;100315.63;6268457;28;20044;-70
2023/11/25 12:17:28;;;;;;;4.80;0.60;;;;;;;5.38;100.00;100304.13;6268411;28;20072;-70
2023/11/25 12:20:32;;;;;;;15.68;3.83;;;;;;;5.39;100.00;100315.38;6264236;28;20372;-70
2023/11/25 12:23:34;;;;;;;7.03;1.00;;;;;;;5.35;100.00;100322.47;6269834;28;20044;-70
2023/11/25 12:26:36;;;;;;;8.07;1.25;;;;;;;5.33;100.00;100319.94;6276017;28;20052;-70
2023/11/25 12:29:38;;;;;;;6.97;0.68;;;;;;;5.37;100.00;100325.88;6269340;28;20052;-70
2023/11/25 12:32:39;;;;;;;5.47;0.90;;;;;;;5.39;100.00;100329.25;6263568;28;20052;-70
2023/11/25 12:35:43;;;;;;;6.45;0.47;;;;;;;5.38;100.00;100324.97;6261744;28;20045;-70
2023/11/25 12:38:45;;;;;;;6.25;0.95;;;;;;;5.26;100.00;100331.47;6264929;28;20041;-71
2023/11/25 12:41:49;;;;;;;3.90;0.50;;;;;;;5.32;100.00;100335.63;6267783;28;20041;-71
2023/11/25 12:44:51;;;;;;;2.47;0.50;;;;;;;5.36;100.00;100329.41;6266474;28;20049;-71
2023/11/25 12:47:52;;;;;;;1.70;0.95;;;;;;;5.39;100.00;100334.47;6268437;28;20040;-71
2023/11/25 12:51:04;;;;;;;2.40;0.47;;;;;;;5.44;100.00;100334.28;6268802;28;20048;-71
2023/11/25 12:54:09;;;;;;;2.53;0.55;;;;;;;5.49;100.00;100351.44;6262368;28;20049;-70
2023/11/25 12:57:11;;;;;;;0.82;0.25;;;;;;;5.45;100.00;100344.69;6271069;28;20045;-71
2023/11/25 13:00:16;;;;;;;11.25;0.60;;;;;;;5.45;100.00;100355.09;6261129;28;20361;-71
2023/11/25 13:03:22;;;;;;;5.35;0.50;;;;;;;5.58;100.00;100365.88;6266242;28;20049;-70
2023/11/25 13:06:25;;;;;;;3.83;0.70;;;;;;;5.67;100.00;100375.09;6271419;28;20048;-71
2023/11/25 13:09:28;;;;;;;2.08;0.40;;;;;;;5.50;100.00;100383.59;6263650;28;20065;-70
2023/11/25 13:12:30;;;;;;;3.22;0.60;;;;;;;5.49;100.00;100376.66;6270999;28;20057;-72
2023/11/25 13:15:32;;;;;;;2.05;0.77;;;;;;;5.43;100.00;100382.13;6269547;28;20067;-71
2023/11/25 13:18:34;;;;;;;1.13;0.47;;;;;;;5.38;100.00;100376.22;6272860;28;20044;-72
2023/11/25 13:21:36;;;;;;;8.27;1.08;;;;;;;5.34;100.00;100368.53;6275933;28;20049;-72
2023/11/25 13:24:38;;;;;;;3.40;0.80;;;;;;;5.29;100.00;100377.44;6273829;28;20056;-72
2023/11/25 13:27:40;;;;;;;1.60;0.30;;;;;;;5.29;100.00;100373.06;6266566;28;20049;-72
2023/11/25 13:30:43;;;;;;;6.32;0.55;;;;;;;5.29;100.00;100378.28;6266603;28;20073;-72
2023/11/25 13:33:44;;;;;;;1.27;0.30;;;;;;;5.37;100.00;100380.59;6270129;28;20049;-72
2023/11/25 13:36:47;;;;;;;0.25;0.25;;;;;;;5.41;100.00;100387.41;6268049;28;20045;-72
2023/11/25 13:39:49;;;;;;;5.50;0.98;;;;;;;5.27;100.00;100390.53;6271143;28;20353;-72
2023/11/25 13:42:50;;;;;;;1.38;0.25;;;;;;;5.26;100.00;100388.78;6273220;28;20392;-72
2023/11/25 13:45:52;;;;;;;10.20;4.55;;;;;;;5.39;100.00;100404.81;6254883;28;20353;-72
2023/11/25 13:48:54;;;;;;;11.77;1.45;;;;;;;5.36;100.00;100399.75;6268388;28;20045;-72
2023/11/25 13:51:57;;;;;;;3.38;0.80;;;;;;;5.42;100.00;100383.03;6272691;28;20053;-71
2023/11/25 13:54:58;;;;;;;1.30;0.30;;;;;;;5.26;100.00;100391.41;6280109;22;20037;-74
2023/11/25 13:57:59;;;;;;;3.67;1.10;;;;;;;5.32;100.00;100395.56;6253768;28;20076;-74
2023/11/25 14:01:01;;;;;;;3.22;1.58;;;;;;;5.30;100.00;100395.59;6253638;28;20376;-74
2023/11/25 14:04:02;;;;;;;1.67;0.73;;;;;;;5.32;100.00;100406.81;6252642;28;20073;-74
2023/11/25 14:07:05;;;;;;;3.95;0.82;;;;;;;5.25;100.00;100409.72;6262218;28;20373;-74
2023/11/25 14:10:08;;;;;;;5.53;0.28;;;;;;;5.26;100.00;100404.44;6273988;28;20075;-74